Terminal Aerodrome Forecast
Issued by NWS

Current Version | Previous Version | Graphics & Text | Print | Product List | Glossary On
Versions: 1 2 3 4 5 6 7 8 9 10 11 12 13 14 15 16 17 18 19 20 21 22 23 24 25
961
FTUS41 KILN 270101 AAA
TAFLUK
TAF AMD
KLUK 270101Z 2701/2724 09005KT P6SM -RA VCTS FEW040CB OVC100
      TEMPO 2701/2703 2SM TSRA OVC025CB
     FM270400 VRB03KT P6SM VCSH SCT035 BKN100
     FM270700 06006KT 5SM BR OVC025
     FM271000 07006KT 5SM BR OVC015
      TEMPO 2711/2715 OVC008
     FM271500 09010KT P6SM BKN025
     FM272000 12010KT P6SM VCSH BKN035=

USA.gov is the U.S. government's official web portal to all federal, state and local government web resources and services.